Home > Products > Valid Products > MTR

000
SAUS45 KPIH 210952
MTRSNT
METAR KSNT 210951Z AUTO 19003KT 07/06 A3009 RMK AO1 SLP114 T00720056





000
SAUS45 KPIH 210852
MTRSNT
METAR KSNT 210851Z AUTO 00000KT 08/06 A3008 RMK AO1 SLP116 T00780056
53004





000
SAUS45 KPIH 210752
MTRSNT
METAR KSNT 210751Z AUTO 00000KT 09/07 A3007 RMK AO1 SLP107 T00890067





000
SAUS45 KPIH 210652
MTRSNT
METAR KSNT 210651Z AUTO 00000KT 10/07 A3007 RMK AO1 SLP091 T01000072
402170033





000
SAUS45 KPIH 210552
MTRSNT
METAR KSNT 210551Z AUTO 00000KT 10/07 A3007 RMK AO1 SLP094 T01000067
10206 20094 51009





000
SAUS45 KPIH 210452
MTRSNT
METAR KSNT 210451Z AUTO 18003KT 11/07 A3006 RMK AO1 SLP101 T01060067





000
SAUS45 KPIH 210352
MTRSNT
METAR KSNT 210351Z AUTO 00000KT 12/07 A3005 RMK AO1 SLP097 T01220067





000
SAUS45 KPIH 210252
MTRSNT
METAR KSNT 210251Z AUTO 00000KT 14/06 A3003 RMK AO1 SLP093 T01440056
52009





000
SAUS45 KPIH 210152
MTRSNT
METAR KSNT 210151Z AUTO 15006KT 17/07 A3002 RMK AO1 SLP092 T01670067





000
SAUS45 KPIH 210052
MTRSNT
METAR KSNT 210051Z AUTO 35005KT 19/07 A3002 RMK AO1 SLP090 T01940067





000
SAUS45 KPIH 202352
MTRSNT
METAR KSNT 202351Z AUTO 00000KT 20/07 A3000 RMK AO1 SLP082 60008
T02000072 10217 20128 58013





000
SAUS45 KPIH 202252
MTRSNT
METAR KSNT 202251Z AUTO VRB03KT 15/08 A3003 RMK AO1 SLP103 P0003
T01500083





000
SAUS45 KPIH 202152
MTRSNT
METAR KSNT 202151Z AUTO 35007KT 17/07 A3003 RMK AO1 SLP096 T01670067





000
SAUS45 KPIH 202052
MTRSNT
METAR KSNT 202051Z AUTO 02004KT 14/08 A3005 RMK AO1 SLP104 60005
T01390078 53004





000
SAUS45 KPIH 201952
MTRSNT
METAR KSNT 201951Z AUTO 00000KT 16/10 A3003 RMK AO1 SLP091 P0005
T01560100





000
SAUS45 KPIH 201852
MTRSNT
METAR KSNT 201851Z AUTO 36007KT 330V030 21/04 A3003 RMK AO1 SLP070
T02110039





000
SAUS45 KPIH 201755
MTRSNT
METAR KSNT 201751Z AUTO 00000KT 19/05 A3003 RMK AO1 SLP070 T01890050
10194 20033 58006





000
SAUS45 KPIH 201655
MTRSNT
METAR KSNT 201651Z AUTO 26003KT 15/06 A3005 RMK AO1 SLP085 T01500061





000
SAUS45 KPIH 201555
MTRSNT
METAR KSNT 201551Z AUTO VRB04KT 13/06 A3005 RMK AO1 SLP085 T01330061





000
SAUS45 KPIH 201452
MTRSNT
METAR KSNT 201451Z AUTO 00000KT 10/06 A3006 RMK AO1 SLP091 T01000056
51008





000
SAUS45 KPIH 201352
MTRSNT
METAR KSNT 201351Z AUTO 00000KT 06/04 A3005 RMK AO1 SLP095 T00610044





000
SAUS45 KPIH 201252
MTRSNT
METAR KSNT 201251Z AUTO 00000KT 03/02 A3004 RMK AO1 SLP093 T00330022





000
SAUS45 KPIH 201152
MTRSNT
METAR KSNT 201151Z AUTO 00000KT 04/03 A3003 RMK AO1 SLP086 T00390028
10150 20039 53003





000
SAUS45 KPIH 201052
MTRSNT
METAR KSNT 201051Z AUTO 00000KT 05/03 A3002 RMK AO1 SLP081 T00500033





000
SAUS45 KPIH 200952
MTRSNT
METAR KSNT 200951Z AUTO 00000KT 06/04 A3002 RMK AO1 SLP087 T00610044





000
SAUS45 KPIH 200852
MTRSNT
METAR KSNT 200851Z AUTO 00000KT 08/05 A3002 RMK AO1 SLP074 T00780050
53001





000
SAUS45 KPIH 200752
MTRSNT
METAR KSNT 200751Z AUTO 16004KT 09/06 A3002 RMK AO1 SLP066 T00940056





000
SAUS45 KPIH 200652
MTRSNT
METAR KSNT 200651Z AUTO 11006KT 12/06 A3001 RMK AO1 SLP058 T01220061
402560022





000
SAUS45 KPIH 200552
MTRSNT
METAR KSNT 200551Z AUTO 14006KT 15/06 A3001 RMK AO1 SLP053 T01500056
10228 20144 50018





000
SAUS45 KPIH 200452
MTRSNT
METAR KSNT 200451Z AUTO 34006KT 16/04 A3002 RMK AO1 SLP069 T01610044





000
SAUS45 KPIH 200352
MTRSNT
METAR KSNT 200351Z AUTO 29004KT 17/04 A2999 RMK AO1 SLP063 T01720039





000
SAUS45 KPIH 200252
MTRSNT
METAR KSNT 200251Z AUTO VRB05KT 18/03 A2995 RMK AO1 SLP057 T01830028
53004





000
SAUS45 KPIH 200152
MTRSNT
METAR KSNT 200151Z AUTO 12005KT 20/02 A2993 RMK AO1 SLP052 T02000022





000
SAUS45 KPIH 200052
MTRSNT
METAR KSNT 200051Z AUTO 17005KT 22/01 A2994 RMK AO1 SLP059 T02170011





000
SAUS45 KPIH 192352
MTRSNT
METAR KSNT 192351Z AUTO 23004KT 22/02 A2994 RMK AO1 SLP055 T02220022
10256 20194 58017





000
SAUS45 KPIH 192252
MTRSNT
METAR KSNT 192251Z AUTO 16005KT 22/04 A2997 RMK AO1 SLP060 T02220039





000
SAUS45 KPIH 192152
MTRSNT
METAR KSNT 192151Z AUTO 18007G15KT 19/03 A3001 RMK AO1 SLP081
T01940033





000
SAUS45 KPIH 192052
MTRSNT
METAR KSNT 192051Z AUTO 24013G23KT 22/M02 A3000 RMK AO1 SLP071
T02171017 55004





000
SAUS45 KPIH 191952
MTRSNT
METAR KSNT 191951Z AUTO VRB06KT 24/M01 A2998 RMK AO1 SLP054
T02391011





000
SAUS45 KPIH 191852
MTRSNT
METAR KSNT 191851Z AUTO 34004KT 23/04 A2999 RMK AO1 SLP059 T02330044





000
SAUS45 KPIH 191752
MTRSNT
METAR KSNT 191751Z AUTO VRB04KT 23/03 A3002 RMK AO1 SLP059 T02330033
10233 20022 58016





000
SAUS45 KPIH 191652
MTRSNT
METAR KSNT 191651Z AUTO 00000KT 16/03 A3005 RMK AO1 SLP088 T01610028





000
SAUS45 KPIH 191552
MTRSNT
METAR KSNT 191551Z AUTO 34003KT 14/02 A3006 RMK AO1 SLP096 T01390022





000
SAUS45 KPIH 191452
MTRSNT
METAR KSNT 191451Z AUTO 00000KT 09/02 A3007 RMK AO1 SLP102 T00940017
56001





000
SAUS45 KPIH 191352
MTRSNT
METAR KSNT 191351Z AUTO 13003KT 07/01 A3008 RMK AO1 SLP093 T00670011





000
SAUS45 KPIH 191252
MTRSNT
METAR KSNT 191251Z AUTO 18003KT 03/M01 A3007 RMK AO1 SLP094
T00281006





000
SAUS45 KPIH 191152
MTRSNT
METAR KSNT 191151Z AUTO 14003KT 04/M01 A3008 RMK AO1 SLP093
T00391006 10128 20039 50002





000
SAUS45 KPIH 191052
MTRSNT
METAR KSNT 191051Z AUTO 00000KT 06/00 A3008 RMK AO1 SLP087 T00610000





000
SAUS45 KPIH 190952
MTRSNT
METAR KSNT 190951Z AUTO VRB03KT 07/00 A3008 RMK AO1 SLP086 T00720000





000
SAUS45 KPIH 190852
MTRSNT
METAR KSNT 190851Z AUTO 00000KT 07/00 A3007 RMK AO1 SLP081 T00720000
56003





000
SAUS45 KPIH 190752
MTRSNT
METAR KSNT 190751Z AUTO 18005KT 09/01 A3007 RMK AO1 SLP079 T00940006





000
SAUS45 KPIH 190652
MTRSNT
METAR KSNT 190651Z AUTO 00000KT 09/00 A3007 RMK AO1 SLP084 T00940000
402890017





000
SAUS45 KPIH 190552
MTRSNT
METAR KSNT 190551Z AUTO 17006KT 13/00 A3008 RMK AO1 SLP087 T01280000
10278 20106 51001





000
SAUS45 KPIH 190452
MTRSNT
METAR KSNT 190451Z AUTO 17004KT 12/M01 A3008 RMK AO1 SLP097
T01221006





000
SAUS45 KPIH 190352
MTRSNT
METAR KSNT 190351Z AUTO 19004KT 13/M01 A3008 RMK AO1 SLP106
T01331006





000
SAUS45 KPIH 190252
MTRSNT
METAR KSNT 190251Z AUTO 17004KT 17/00 A3008 RMK AO1 SLP103 T01670000
55002





000
SAUS45 KPIH 190152
MTRSNT
METAR KSNT 190151Z AUTO 27004KT 24/M01 A3007 RMK AO1 SLP093
T02441011





000
SAUS45 KPIH 190052
MTRSNT
METAR KSNT 190051Z AUTO 29006KT 27/M03 A3007 RMK AO1 SLP095
T02671028





000
SAUS45 KPIH 182352
MTRSNT
METAR KSNT 182351Z AUTO 24004KT 27/M02 A3008 RMK AO1 SLP098
T02671022 10289 20217 56012





000
SAUS45 KPIH 182252
MTRSNT
METAR KSNT 182251Z AUTO 31007KT 28/M03 A3009 RMK AO1 SLP097
T02831028





000
SAUS45 KPIH 182152
MTRSNT
METAR KSNT 182151Z AUTO 25007G14KT 27/M04 A3011 RMK AO1 SLP102
T02721039





000
SAUS45 KPIH 182053 COR
MTRSNT
METAR KSNT 182051Z AUTO VRB05KT 28/M01 A3013 RMK AO1 SLP102
T02781006 56019





000
SAUS45 KPIH 181952
MTRSNT
METAR KSNT 181951Z AUTO 06009KT 27/01 A3015 RMK AO1 SLP112 T02670006





000
SAUS45 KPIH 181852
MTRSNT
METAR KSNT 181851Z AUTO 33007KT 25/02 A3017 RMK AO1 SLP116 T02500017





000
SAUS45 KPIH 181752
MTRSNT
METAR KSNT 181751Z AUTO VRB06KT 22/03 A3019 RMK AO1 SLP129 T02170028
10217 20017 58013





000
SAUS45 KPIH 181652
MTRSNT
METAR KSNT 181651Z AUTO 35005KT 17/03 A3021 RMK AO1 SLP145 T01720028





000
SAUS45 KPIH 181552
MTRSNT
METAR KSNT 181551Z AUTO 36003KT 13/03 A3023 RMK AO1 SLP155 T01330028





000
SAUS45 KPIH 181452
MTRSNT
METAR KSNT 181451Z AUTO 08003KT 09/02 A3024 RMK AO1 SLP164 T00940017
58002





000
SAUS45 KPIH 181352
MTRSNT
METAR KSNT 181351Z AUTO 00000KT 05/01 A3025 RMK AO1 SLP163 T00500006





000
SAUS45 KPIH 181252
MTRSNT
METAR KSNT 181251Z AUTO 00000KT 03/00 A3025 RMK AO1 SLP159 T00330000





000
SAUS45 KPIH 181152
MTRSNT
METAR KSNT 181151Z AUTO 00000KT 03/M01 A3025 RMK AO1 SLP158
T00281006 10117 20028 51003





000
SAUS45 KPIH 181052
MTRSNT
METAR KSNT 181051Z AUTO 00000KT 03/M01 A3025 RMK AO1 SLP158
T00331006





    US Dept of Commerce
    National Oceanic and Atmospheric Administration
    National Weather Service
    1325 East West Highway
    Silver Spring, MD 20910
    Page Author: NWS Internet Services Team
Disclaimer
Information Quality
Credits
Glossary
Privacy Policy
Freedom of Information Act (FOIA)
About Us
Career Opportunities